Terminal Aerodrome Forecast
Issued by NWS

Home | Current Version | Previous Version | Text Only | Print | Product List | Glossary On
Versions: 1 2 3 4 5 6 7 8 9 10 11 12 13 14 15 16 17 18 19
000
FTUS42 KMLB 211120
TAFISM
TAF
KISM 211120Z 2112/2212 VRB02KT P6SM FEW025 SCT100 BKN250
     FM211400 20005KT P6SM SCT030 SCT100 SCT250
     FM211700 21007KT P6SM VCSH SCT035 BKN120 BKN250
      TEMPO 2119/2122 4SM TSRA BKN030CB BKN070
     FM212300 VRB04KT P6SM VCSH SCT030 BKN080 BKN200
     FM220100 VRB02KT P6SM FEW035 SCT100 BKN200=

USA.gov is the U.S. government's official web portal to all federal, state and local government web resources and services.